sensor_id;sensor_type;location;lat;lon;timestamp;pressure;altitude;pressure_sealevel;temperature;humidity
42105;BME280;61464;51.472;5.712;2023-01-19T00:00:18;99880.00;;;0.70;100.00
42105;BME280;61464;51.472;5.712;2023-01-19T00:02:44;99877.66;;;0.67;100.00
42105;BME280;61464;51.472;5.712;2023-01-19T00:05:12;99884.75;;;0.63;100.00
42105;BME280;61464;51.472;5.712;2023-01-19T00:07:38;99871.41;;;0.59;100.00
42105;BME280;61464;51.472;5.712;2023-01-19T00:10:05;99874.88;;;0.58;100.00
42105;BME280;61464;51.472;5.712;2023-01-19T00:12:31;99873.03;;;0.60;100.00
42105;BME280;61464;51.472;5.712;2023-01-19T00:14:59;99864.44;;;0.62;100.00
42105;BME280;61464;51.472;5.712;2023-01-19T00:17:28;99863.63;;;0.61;100.00
42105;BME280;61464;51.472;5.712;2023-01-19T00:19:56;99865.25;;;0.62;100.00
42105;BME280;61464;51.472;5.712;2023-01-19T00:22:22;99876.16;;;0.64;100.00
42105;BME280;61464;51.472;5.712;2023-01-19T00:24:48;99871.16;;;0.63;100.00
42105;BME280;61464;51.472;5.712;2023-01-19T00:27:14;99881.16;;;0.66;100.00
42105;BME280;61464;51.472;5.712;2023-01-19T00:29:40;99874.41;;;0.65;100.00
42105;BME280;61464;51.472;5.712;2023-01-19T00:32:06;99872.91;;;0.62;100.00
42105;BME280;61464;51.472;5.712;2023-01-19T00:34:32;99872.56;;;0.67;100.00
42105;BME280;61464;51.472;5.712;2023-01-19T00:37:06;99869.41;;;0.63;100.00
42105;BME280;61464;51.472;5.712;2023-01-19T00:39:32;99872.91;;;0.62;100.00
42105;BME280;61464;51.472;5.712;2023-01-19T00:41:58;99867.56;;;0.65;100.00
42105;BME280;61464;51.472;5.712;2023-01-19T00:44:43;99887.41;;;0.73;100.00
42105;BME280;61464;51.472;5.712;2023-01-19T00:47:09;99893.81;;;0.67;100.00
42105;BME280;61464;51.472;5.712;2023-01-19T00:49:34;99901.69;;;0.75;100.00
42105;BME280;61464;51.472;5.712;2023-01-19T00:52:00;99904.72;;;0.80;100.00
42105;BME280;61464;51.472;5.712;2023-01-19T00:54:26;99898.44;;;0.73;100.00
42105;BME280;61464;51.472;5.712;2023-01-19T00:56:52;99902.28;;;0.79;100.00
42105;BME280;61464;51.472;5.712;2023-01-19T00:59:18;99892.31;;;0.76;100.00
42105;BME280;61464;51.472;5.712;2023-01-19T01:01:44;99884.75;;;0.74;100.00
42105;BME280;61464;51.472;5.712;2023-01-19T01:04:10;99897.06;;;0.80;100.00
42105;BME280;61464;51.472;5.712;2023-01-19T01:06:38;99900.31;;;0.83;100.00
42105;BME280;61464;51.472;5.712;2023-01-19T01:09:06;99897.97;;;0.79;100.00
42105;BME280;61464;51.472;5.712;2023-01-19T01:11:41;99901.13;;;0.83;100.00
42105;BME280;61464;51.472;5.712;2023-01-19T01:14:10;99881.97;;;0.77;100.00
42105;BME280;61464;51.472;5.712;2023-01-19T01:16:36;99885.44;;;0.76;100.00
42105;BME280;61464;51.472;5.712;2023-01-19T01:19:02;99880.81;;;0.70;100.00
42105;BME280;61464;51.472;5.712;2023-01-19T01:21:28;99875.91;;;0.67;100.00
42105;BME280;61464;51.472;5.712;2023-01-19T01:23:56;99878.13;;;0.60;100.00
42105;BME280;61464;51.472;5.712;2023-01-19T01:26:22;99886.38;;;0.64;100.00
42105;BME280;61464;51.472;5.712;2023-01-19T01:28:48;99882.44;;;0.60;100.00
42105;BME280;61464;51.472;5.712;2023-01-19T01:31:13;99887.44;;;0.62;100.00
42105;BME280;61464;51.472;5.712;2023-01-19T01:33:39;99880.34;;;0.65;100.00
42105;BME280;61464;51.472;5.712;2023-01-19T01:36:06;99880.69;;;0.60;100.00
42105;BME280;61464;51.472;5.712;2023-01-19T01:38:32;99887.41;;;0.73;100.00
42105;BME280;61464;51.472;5.712;2023-01-19T01:40:57;99883.25;;;0.72;100.00
42105;BME280;61464;51.472;5.712;2023-01-19T01:43:52;99887.41;;;0.73;100.00
42105;BME280;61464;51.472;5.712;2023-01-19T01:46:19;99874.91;;;0.70;100.00
42105;BME280;61464;51.472;5.712;2023-01-19T01:49:14;99888.91;;;0.75;100.00
42105;BME280;61464;51.472;5.712;2023-01-19T01:51:50;99887.91;;;0.78;100.00
42105;BME280;61464;51.472;5.712;2023-01-19T01:54:28;99899.16;;;0.87;100.00
42105;BME280;61464;51.472;5.712;2023-01-19T01:56:59;99894.84;;;0.87;100.00
42105;BME280;61464;51.472;5.712;2023-01-19T01:59:33;99893.00;;;0.89;100.00
42105;BME280;61464;51.472;5.712;2023-01-19T02:02:25;99889.38;;;0.92;100.00
42105;BME280;61464;51.472;5.712;2023-01-19T02:05:25;99892.78;;;0.92;100.00
42105;BME280;61464;51.472;5.712;2023-01-19T02:11:01;99894.28;;;0.95;100.00
42105;BME280;61464;51.472;5.712;2023-01-19T02:13:46;99898.22;;;0.99;100.00
42105;BME280;61464;51.472;5.712;2023-01-19T02:16:14;99913.28;;;1.02;100.00
42105;BME280;61464;51.472;5.712;2023-01-19T02:18:42;99900.41;;;1.04;100.00
42105;BME280;61464;51.472;5.712;2023-01-19T02:21:48;99910.41;;;1.07;100.00
42105;BME280;61464;51.472;5.712;2023-01-19T02:24:17;99904.72;;;1.03;100.00
42105;BME280;61464;51.472;5.712;2023-01-19T02:26:45;99906.34;;;0.93;100.00
42105;BME280;61464;51.472;5.712;2023-01-19T02:29:16;99900.69;;;0.78;100.00
42105;BME280;61464;51.472;5.712;2023-01-19T02:31:43;99905.88;;;0.65;100.00
42105;BME280;61464;51.472;5.712;2023-01-19T02:34:12;99900.53;;;0.46;100.00
42105;BME280;61464;51.472;5.712;2023-01-19T02:39:40;99911.88;;;0.30;100.00
42105;BME280;61464;51.472;5.712;2023-01-19T02:42:29;99908.38;;;0.20;100.00
42105;BME280;61464;51.472;5.712;2023-01-19T02:44:57;99908.34;;;0.09;100.00
42105;BME280;61464;51.472;5.712;2023-01-19T02:47:23;99914.94;;;0.00;100.00
42105;BME280;61464;51.472;5.712;2023-01-19T02:49:57;99908.31;;;-0.03;100.00
42105;BME280;61464;51.472;5.712;2023-01-19T02:52:23;99915.16;;;-0.03;100.00
42105;BME280;61464;51.472;5.712;2023-01-19T02:55:18;99914.00;;;0.01;100.00
42105;BME280;61464;51.472;5.712;2023-01-19T02:58:03;99905.91;;;0.07;100.00
42105;BME280;61464;51.472;5.712;2023-01-19T03:00:43;99904.41;;;0.05;100.00
42105;BME280;61464;51.472;5.712;2023-01-19T03:06:45;99919.72;;;0.05;100.00
42105;BME280;61464;51.472;5.712;2023-01-19T03:09:39;99915.75;;;0.01;100.00
42105;BME280;61464;51.472;5.712;2023-01-19T03:12:39;99920.25;;;-0.03;100.00
42105;BME280;61464;51.472;5.712;2023-01-19T03:15:19;99926.50;;;-0.07;100.00
42105;BME280;61464;51.472;5.712;2023-01-19T03:17:49;99925.59;;;-0.06;100.00
42105;BME280;61464;51.472;5.712;2023-01-19T03:20:22;99922.53;;;-0.11;100.00
42105;BME280;61464;51.472;5.712;2023-01-19T03:22:57;99924.06;;;-0.09;100.00
42105;BME280;61464;51.472;5.712;2023-01-19T03:25:25;99930.19;;;-0.11;100.00
42105;BME280;61464;51.472;5.712;2023-01-19T03:27:53;99916.97;;;-0.16;100.00
42105;BME280;61464;51.472;5.712;2023-01-19T03:30:27;99925.53;;;-0.17;100.00
42105;BME280;61464;51.472;5.712;2023-01-19T03:32:59;99933.09;;;-0.16;100.00
42105;BME280;61464;51.472;5.712;2023-01-19T03:35:31;99930.75;;;-0.19;100.00
42105;BME280;61464;51.472;5.712;2023-01-19T03:38:05;99935.84;;;-0.19;100.00
42105;BME280;61464;51.472;5.712;2023-01-19T03:40:34;99935.84;;;-0.19;100.00
42105;BME280;61464;51.472;5.712;2023-01-19T03:43:02;99937.03;;;-0.12;100.00
42105;BME280;61464;51.472;5.712;2023-01-19T03:45:31;99932.84;;;-0.13;100.00
42105;BME280;61464;51.472;5.712;2023-01-19T03:47:58;99948.66;;;-0.08;100.00
42105;BME280;61464;51.472;5.712;2023-01-19T03:50:27;99954.56;;;-0.07;100.00
42105;BME280;61464;51.472;5.712;2023-01-19T03:53:12;99954.56;;;-0.07;100.00
42105;BME280;61464;51.472;5.712;2023-01-19T03:55:46;99960.72;;;-0.10;100.00
42105;BME280;61464;51.472;5.712;2023-01-19T03:58:13;99956.03;;;-0.16;100.00
42105;BME280;61464;51.472;5.712;2023-01-19T04:00:39;99963.91;;;-0.19;100.00
42105;BME280;61464;51.472;5.712;2023-01-19T04:03:11;99970.75;;;-0.19;100.00
42105;BME280;61464;51.472;5.712;2023-01-19T04:05:37;99966.59;;;-0.21;100.00
42105;BME280;61464;51.472;5.712;2023-01-19T04:08:04;99964.56;;;-0.28;100.00
42105;BME280;61464;51.472;5.712;2023-01-19T04:10:30;99969.66;;;-0.28;100.00
42105;BME280;61464;51.472;5.712;2023-01-19T04:12:57;99973.03;;;-0.28;100.00
42105;BME280;61464;51.472;5.712;2023-01-19T04:15:25;99974.06;;;-0.30;100.00
42105;BME280;61464;51.472;5.712;2023-01-19T04:17:51;99973.03;;;-0.28;100.00
42105;BME280;61464;51.472;5.712;2023-01-19T04:20:17;99970.00;;;-0.33;100.00
42105;BME280;61464;51.472;5.712;2023-01-19T04:22:43;99973.13;;;-0.29;100.00
42105;BME280;61464;51.472;5.712;2023-01-19T04:25:09;99996.69;;;-0.26;100.00
42105;BME280;61464;51.472;5.712;2023-01-19T04:27:36;99991.69;;;-0.27;100.00
42105;BME280;61464;51.472;5.712;2023-01-19T04:30:03;99992.00;;;-0.32;100.00
42105;BME280;61464;51.472;5.712;2023-01-19T04:32:31;99992.72;;;-0.30;100.00
42105;BME280;61464;51.472;5.712;2023-01-19T04:34:57;99992.63;;;-0.28;100.00
42105;BME280;61464;51.472;5.712;2023-01-19T04:37:23;99995.38;;;-0.31;100.00
42105;BME280;61464;51.472;5.712;2023-01-19T04:39:49;99998.53;;;-0.28;100.00
42105;BME280;61464;51.472;5.712;2023-01-19T04:42:15;100003.72;;;-0.29;100.00
42105;BME280;61464;51.472;5.712;2023-01-19T04:44:41;100002.00;;;-0.29;100.00
42105;BME280;61464;51.472;5.712;2023-01-19T04:47:07;100007.31;;;-0.32;100.00
42105;BME280;61464;51.472;5.712;2023-01-19T04:49:33;100006.28;;;-0.29;100.00
42105;BME280;61464;51.472;5.712;2023-01-19T04:52:04;100004.16;;;-0.35;100.00
42105;BME280;61464;51.472;5.712;2023-01-19T04:54:30;100011.59;;;-0.32;100.00
42105;BME280;61464;51.472;5.712;2023-01-19T04:56:56;100016.72;;;-0.32;100.00
42105;BME280;61464;51.472;5.712;2023-01-19T04:59:22;100010.09;;;-0.35;100.00
42105;BME280;61464;51.472;5.712;2023-01-19T05:01:48;100010.28;;;-0.38;100.00
42105;BME280;61464;51.472;5.712;2023-01-19T05:04:14;100015.50;;;-0.39;100.00
42105;BME280;61464;51.472;5.712;2023-01-19T05:06:40;100000.41;;;-0.43;100.00
42105;BME280;61464;51.472;5.712;2023-01-19T05:09:06;100001.22;;;-0.42;100.00
42105;BME280;61464;51.472;5.712;2023-01-19T05:11:34;100004.47;;;-0.40;100.00
42105;BME280;61464;51.472;5.712;2023-01-19T05:14:00;99978.06;;;-0.39;100.00
42105;BME280;61464;51.472;5.712;2023-01-19T05:16:32;99956.84;;;-0.39;100.00
42105;BME280;61464;51.472;5.712;2023-01-19T05:18:59;99951.88;;;-0.41;100.00
42105;BME280;61464;51.472;5.712;2023-01-19T05:21:25;99945.03;;;-0.41;100.00
42105;BME280;61464;51.472;5.712;2023-01-19T05:23:51;99962.66;;;-0.37;100.00
42105;BME280;61464;51.472;5.712;2023-01-19T05:26:17;99955.69;;;-0.35;100.00
42105;BME280;61464;51.472;5.712;2023-01-19T05:28:42;99954.91;;;-0.36;100.00
42105;BME280;61464;51.472;5.712;2023-01-19T05:31:08;99954.56;;;-0.31;100.00
42105;BME280;61464;51.472;5.712;2023-01-19T05:33:34;99944.25;;;-0.30;100.00
42105;BME280;61464;51.472;5.712;2023-01-19T05:36:00;99944.06;;;-0.27;100.00
42105;BME280;61464;51.472;5.712;2023-01-19T05:38:26;99955.88;;;-0.26;100.00
42105;BME280;61464;51.472;5.712;2023-01-19T05:40:56;99981.38;;;-0.26;100.00
42105;BME280;61464;51.472;5.712;2023-01-19T05:43:23;99977.34;;;-0.17;100.00
42105;BME280;61464;51.472;5.712;2023-01-19T05:45:52;99968.09;;;-0.18;100.00
42105;BME280;61464;51.472;5.712;2023-01-19T05:48:18;99977.50;;;-0.18;100.00
42105;BME280;61464;51.472;5.712;2023-01-19T05:50:43;99980.75;;;-0.16;100.00
42105;BME280;61464;51.472;5.712;2023-01-19T05:53:09;99983.16;;;-0.15;100.00
42105;BME280;61464;51.472;5.712;2023-01-19T05:55:35;99996.84;;;-0.16;100.00
42105;BME280;61464;51.472;5.712;2023-01-19T05:58:01;100005.22;;;-0.14;100.00
42105;BME280;61464;51.472;5.712;2023-01-19T06:00:27;100011.13;;;-0.13;100.00
42105;BME280;61464;51.472;5.712;2023-01-19T06:02:53;100012.53;;;-0.09;100.00
42105;BME280;61464;51.472;5.712;2023-01-19T06:05:19;100010.78;;;-0.09;100.00
42105;BME280;61464;51.472;5.712;2023-01-19T06:07:45;100007.44;;;-0.09;100.00
42105;BME280;61464;51.472;5.712;2023-01-19T06:10:11;100010.78;;;-0.09;100.00
42105;BME280;61464;51.472;5.712;2023-01-19T06:12:39;100020.09;;;-0.08;100.00
42105;BME280;61464;51.472;5.712;2023-01-19T06:15:06;100020.28;;;-0.11;100.00
42105;BME280;61464;51.472;5.712;2023-01-19T06:17:32;100017.03;;;-0.13;100.00
42105;BME280;61464;51.472;5.712;2023-01-19T06:19:58;100020.53;;;-0.14;100.00
42105;BME280;61464;51.472;5.712;2023-01-19T06:22:24;100023.78;;;-0.12;100.00
42105;BME280;61464;51.472;5.712;2023-01-19T06:24:50;100017.03;;;-0.13;100.00
42105;BME280;61464;51.472;5.712;2023-01-19T06:27:16;100014.47;;;-0.13;100.00
42105;BME280;61464;51.472;5.712;2023-01-19T06:29:42;100022.97;;;-0.12;100.00
42105;BME280;61464;51.472;5.712;2023-01-19T06:32:08;100027.94;;;-0.11;100.00
42105;BME280;61464;51.472;5.712;2023-01-19T06:34:34;100029.59;;;-0.10;100.00
42105;BME280;61464;51.472;5.712;2023-01-19T06:36:59;100034.69;;;-0.10;100.00
42105;BME280;61464;51.472;5.712;2023-01-19T06:39:25;100037.16;;;-0.08;100.00
42105;BME280;61464;51.472;5.712;2023-01-19T06:41:51;100048.97;;;-0.07;100.00
42105;BME280;61464;51.472;5.712;2023-01-19T06:44:17;100042.72;;;-0.03;100.00
42105;BME280;61464;51.472;5.712;2023-01-19T06:46:43;100062.31;;;-0.04;100.00
42105;BME280;61464;51.472;5.712;2023-01-19T06:49:09;100064.16;;;-0.06;100.00
42105;BME280;61464;51.472;5.712;2023-01-19T06:51:35;100058.97;;;-0.04;100.00
42105;BME280;61464;51.472;5.712;2023-01-19T06:54:00;100063.22;;;-0.05;100.00
42105;BME280;61464;51.472;5.712;2023-01-19T06:56:27;100072.53;;;-0.04;100.00
42105;BME280;61464;51.472;5.712;2023-01-19T06:58:52;100063.38;;;-0.06;100.00
42105;BME280;61464;51.472;5.712;2023-01-19T07:01:19;100065.06;;;-0.07;100.00
42105;BME280;61464;51.472;5.712;2023-01-19T07:03:45;100075.09;;;-0.04;100.00
42105;BME280;61464;51.472;5.712;2023-01-19T07:06:11;100070.78;;;-0.03;100.00
42105;BME280;61464;51.472;5.712;2023-01-19T07:08:38;100075.78;;;-0.02;100.00
42105;BME280;61464;51.472;5.712;2023-01-19T07:11:10;100079.97;;;-0.01;100.00
42105;BME280;61464;51.472;5.712;2023-01-19T07:13:38;100089.47;;;-0.03;100.00
42105;BME280;61464;51.472;5.712;2023-01-19T07:16:10;100087.63;;;-0.01;100.00
42105;BME280;61464;51.472;5.712;2023-01-19T07:18:37;100086.19;;;-0.05;100.00
42105;BME280;61464;51.472;5.712;2023-01-19T07:21:04;100091.19;;;-0.03;100.00
42105;BME280;61464;51.472;5.712;2023-01-19T07:23:30;100096.31;;;-0.03;100.00
42105;BME280;61464;51.472;5.712;2023-01-19T07:25:57;100098.03;;;-0.04;100.00
42105;BME280;61464;51.472;5.712;2023-01-19T07:28:25;100106.72;;;-0.06;100.00
42105;BME280;61464;51.472;5.712;2023-01-19T07:30:53;100110.00;;;-0.04;100.00
42105;BME280;61464;51.472;5.712;2023-01-19T07:33:20;100108.16;;;-0.02;100.00
42105;BME280;61464;51.472;5.712;2023-01-19T07:35:51;100111.19;;;0.03;100.00
42105;BME280;61464;51.472;5.712;2023-01-19T07:38:17;100118.94;;;0.02;100.00
42105;BME280;61464;51.472;5.712;2023-01-19T07:40:44;100118.38;;;-0.02;100.00
42105;BME280;61464;51.472;5.712;2023-01-19T07:43:13;100118.22;;;-0.01;100.00
42105;BME280;61464;51.472;5.712;2023-01-19T07:45:40;100114.69;;;0.02;100.00
42105;BME280;61464;51.472;5.712;2023-01-19T07:48:06;100126.31;;;0.06;100.00
42105;BME280;61464;51.472;5.712;2023-01-19T07:50:32;100126.88;;;0.10;100.00
42105;BME280;61464;51.472;5.712;2023-01-19T07:53:05;100123.53;;;0.09;100.00
42105;BME280;61464;51.472;5.712;2023-01-19T07:55:31;100136.09;;;0.12;100.00
42105;BME280;61464;51.472;5.712;2023-01-19T07:57:57;100136.09;;;0.12;100.00
42105;BME280;61464;51.472;5.712;2023-01-19T08:00:23;100145.97;;;0.17;100.00
42105;BME280;61464;51.472;5.712;2023-01-19T08:02:59;100148.28;;;0.20;100.00
42105;BME280;61464;51.472;5.712;2023-01-19T08:05:25;100148.00;;;0.25;100.00
42105;BME280;61464;51.472;5.712;2023-01-19T08:07:54;100155.66;;;0.25;100.00
42105;BME280;61464;51.472;5.712;2023-01-19T08:10:23;100155.53;;;0.26;100.00
42105;BME280;61464;51.472;5.712;2023-01-19T08:12:54;100159.72;;;0.27;100.00
42105;BME280;61464;51.472;5.712;2023-01-19T08:15:20;100161.34;;;0.28;100.00
42105;BME280;61464;51.472;5.712;2023-01-19T08:18:00;100162.16;;;0.29;100.00
42105;BME280;61464;51.472;5.712;2023-01-19T08:20:27;100167.38;;;0.27;100.00
42105;BME280;61464;51.472;5.712;2023-01-19T08:22:54;100175.75;;;0.29;100.00
42105;BME280;61464;51.472;5.712;2023-01-19T08:25:35;100177.59;;;0.27;100.00
42105;BME280;61464;51.472;5.712;2023-01-19T08:28:04;100185.94;;;0.29;100.00
42105;BME280;61464;51.472;5.712;2023-01-19T08:30:30;100192.81;;;0.29;100.00
42105;BME280;61464;51.472;5.712;2023-01-19T08:32:57;100196.50;;;0.25;100.00
42105;BME280;61464;51.472;5.712;2023-01-19T08:35:34;100192.69;;;0.30;100.00
42105;BME280;61464;51.472;5.712;2023-01-19T08:38:02;100205.34;;;0.32;100.00
42105;BME280;61464;51.472;5.712;2023-01-19T08:40:30;100204.53;;;0.31;100.00
42105;BME280;61464;51.472;5.712;2023-01-19T08:43:04;100201.28;;;0.29;100.00
42105;BME280;61464;51.472;5.712;2023-01-19T08:45:33;100209.75;;;0.30;100.00
42105;BME280;61464;51.472;5.712;2023-01-19T08:47:59;100219.63;;;0.34;100.00
42105;BME280;61464;51.472;5.712;2023-01-19T08:50:30;100226.28;;;0.37;100.00
42105;BME280;61464;51.472;5.712;2023-01-19T08:52:58;100232.69;;;0.43;100.00
42105;BME280;61464;51.472;5.712;2023-01-19T08:55:26;100240.53;;;0.52;100.00
42105;BME280;61464;51.472;5.712;2023-01-19T08:57:54;100239.91;;;0.49;100.00
42105;BME280;61464;51.472;5.712;2023-01-19T09:00:25;100236.22;;;0.53;100.00
42105;BME280;61464;51.472;5.712;2023-01-19T09:02:52;100234.47;;;0.66;100.00
42105;BME280;61464;51.472;5.712;2023-01-19T09:05:18;100246.56;;;0.75;100.00
42105;BME280;61464;51.472;5.712;2023-01-19T09:07:45;100258.34;;;0.78;100.00
42105;BME280;61464;51.472;5.712;2023-01-19T09:10:13;100253.47;;;0.62;100.00
42105;BME280;61464;51.472;5.712;2023-01-19T09:12:40;100256.38;;;0.57;100.00
42105;BME280;61464;51.472;5.712;2023-01-19T09:15:06;100250.41;;;0.57;100.00
42105;BME280;61464;51.472;5.712;2023-01-19T09:17:32;100267.47;;;0.56;100.00
42105;BME280;61464;51.472;5.712;2023-01-19T09:19:58;100261.03;;;0.64;100.00
42105;BME280;61464;51.472;5.712;2023-01-19T09:22:24;100266.09;;;0.76;100.00
42105;BME280;61464;51.472;5.712;2023-01-19T09:24:53;100275.38;;;0.77;100.00
42105;BME280;61464;51.472;5.712;2023-01-19T09:27:19;100291.44;;;0.79;100.00
42105;BME280;61464;51.472;5.712;2023-01-19T09:29:45;100289.81;;;0.78;100.00
42105;BME280;61464;51.472;5.712;2023-01-19T09:32:17;100296.34;;;0.83;100.00
42105;BME280;61464;51.472;5.712;2023-01-19T09:34:44;100291.94;;;0.85;100.00
42105;BME280;61464;51.472;5.712;2023-01-19T09:37:10;100288.09;;;1.03;100.00
42105;BME280;61464;51.472;5.712;2023-01-19T09:39:36;100290.94;;;1.23;100.00
42105;BME280;61464;51.472;5.712;2023-01-19T09:42:41;100296.41;;;1.42;100.00
42105;BME280;61464;51.472;5.712;2023-01-19T09:45:22;100288.41;;;1.23;100.00
42105;BME280;61464;51.472;5.712;2023-01-19T09:47:52;100305.03;;;1.28;100.00
42105;BME280;61464;51.472;5.712;2023-01-19T09:50:34;100297.97;;;1.32;100.00
42105;BME280;61464;51.472;5.712;2023-01-19T09:53:18;100303.19;;;1.30;100.00
42105;BME280;61464;51.472;5.712;2023-01-19T09:55:46;100304.75;;;1.68;100.00
42105;BME280;61464;51.472;5.712;2023-01-19T09:58:16;100313.78;;;1.61;100.00
42105;BME280;61464;51.472;5.712;2023-01-19T10:00:51;100305.47;;;1.46;100.00
42105;BME280;61464;51.472;5.712;2023-01-19T10:03:21;100314.75;;;1.47;100.00
42105;BME280;61464;51.472;5.712;2023-01-19T10:06:00;100315.25;;;1.52;100.00
42105;BME280;61464;51.472;5.712;2023-01-19T10:08:54;100320.47;;;1.39;100.00
42105;BME280;61464;51.472;5.712;2023-01-19T10:11:45;100314.94;;;1.33;100.00
42105;BME280;61464;51.472;5.712;2023-01-19T10:14:24;100316.22;;;1.27;100.00
42105;BME280;61464;51.472;5.712;2023-01-19T10:19:44;100323.75;;;1.29;100.00
42105;BME280;61464;51.472;5.712;2023-01-19T10:22:24;100325.78;;;1.36;100.00
42105;BME280;61464;51.472;5.712;2023-01-19T10:25:01;100321.44;;;1.50;100.00
42105;BME280;61464;51.472;5.712;2023-01-19T10:27:32;100319.69;;;1.50;100.00
42105;BME280;61464;51.472;5.712;2023-01-19T10:30:00;100331.78;;;1.59;100.00
42105;BME280;61464;51.472;5.712;2023-01-19T10:32:31;100327.06;;;1.66;100.00
42105;BME280;61464;51.472;5.712;2023-01-19T10:34:58;100332.09;;;1.79;100.00
42105;BME280;61464;51.472;5.712;2023-01-19T10:37:30;100329.03;;;1.74;100.00
42105;BME280;61464;51.472;5.712;2023-01-19T10:42:34;100334.31;;;1.84;100.00
42105;BME280;61464;51.472;5.712;2023-01-19T10:45:00;100328.13;;;1.75;100.00
42105;BME280;61464;51.472;5.712;2023-01-19T10:47:35;100333.72;;;1.80;100.00
42105;BME280;61464;51.472;5.712;2023-01-19T10:50:34;100328.59;;;1.80;100.00
42105;BME280;61464;51.472;5.712;2023-01-19T10:53:03;100337.81;;;1.83;100.00
42105;BME280;61464;51.472;5.712;2023-01-19T10:55:34;100334.75;;;1.77;100.00
42105;BME280;61464;51.472;5.712;2023-01-19T10:58:03;100336.06;;;1.83;100.00
42105;BME280;61464;51.472;5.712;2023-01-19T11:00:37;100338.16;;;1.89;100.00
42105;BME280;61464;51.472;5.712;2023-01-19T11:05:46;100351.22;;;1.97;100.00
42105;BME280;61464;51.472;5.712;2023-01-19T11:08:29;100339.81;;;2.01;100.00
42105;BME280;61464;51.472;5.712;2023-01-19T11:11:02;100339.81;;;2.01;100.00
42105;BME280;61464;51.472;5.712;2023-01-19T11:13:30;100342.50;;;2.00;100.00
42105;BME280;61464;51.472;5.712;2023-01-19T11:16:24;100347.25;;;2.05;100.00
42105;BME280;61464;51.472;5.712;2023-01-19T11:18:52;100345.16;;;1.98;100.00
42105;BME280;61464;51.472;5.712;2023-01-19T11:21:24;100346.59;;;2.14;100.00
42105;BME280;61464;51.472;5.712;2023-01-19T11:24:02;100348.00;;;2.18;100.00
42105;BME280;61464;51.472;5.712;2023-01-19T11:26:54;100335.66;;;2.23;100.00
42105;BME280;61464;51.472;5.712;2023-01-19T11:29:25;100345.81;;;2.36;100.00
42105;BME280;61464;51.472;5.712;2023-01-19T11:31:53;100343.78;;;2.06;100.00
42105;BME280;61464;51.472;5.712;2023-01-19T11:34:32;100348.47;;;2.12;100.00
42105;BME280;61464;51.472;5.712;2023-01-19T11:37:02;100340.28;;;2.07;100.00
42105;BME280;61464;51.472;5.712;2023-01-19T11:39:33;100332.75;;;2.05;100.00
42105;BME280;61464;51.472;5.712;2023-01-19T11:42:11;100338.09;;;2.13;100.00
42105;BME280;61464;51.472;5.712;2023-01-19T11:45:12;100332.16;;;2.13;100.00
42105;BME280;61464;51.472;5.712;2023-01-19T11:47:45;100331.91;;;2.05;100.00
42105;BME280;61464;51.472;5.712;2023-01-19T11:50:23;100335.31;;;2.05;100.00
42105;BME280;61464;51.472;5.712;2023-01-19T11:58:19;100331.00;;;2.17;100.00
42105;BME280;61464;51.472;5.712;2023-01-19T12:09:11;100329.53;;;2.48;100.00
42105;BME280;61464;51.472;5.712;2023-01-19T12:11:56;100334.16;;;2.32;100.00
42105;BME280;61464;51.472;5.712;2023-01-19T12:16:59;100332.75;;;2.05;100.00
42105;BME280;61464;51.472;5.712;2023-01-19T12:19:44;100341.22;;;2.06;100.00
42105;BME280;61464;51.472;5.712;2023-01-19T12:22:15;100327.47;;;2.07;100.00
42105;BME280;61464;51.472;5.712;2023-01-19T12:25:24;100334.28;;;2.30;100.00
42105;BME280;61464;51.472;5.712;2023-01-19T12:27:48;100329.97;;;2.42;100.00
42105;BME280;61464;51.472;5.712;2023-01-19T12:30:21;100328.22;;;2.42;100.00
42105;BME280;61464;51.472;5.712;2023-01-19T12:32:48;100334.88;;;2.56;100.00
42105;BME280;61464;51.472;5.712;2023-01-19T12:36:03;100336.97;;;2.63;100.00
42105;BME280;61464;51.472;5.712;2023-01-19T12:41:32;100337.06;;;2.72;100.00
42105;BME280;61464;51.472;5.712;2023-01-19T12:46:50;100343.47;;;2.78;100.00
42105;BME280;61464;51.472;5.712;2023-01-19T12:52:33;100345.56;;;2.73;100.00
42105;BME280;61464;51.472;5.712;2023-01-19T13:00:39;100340.56;;;2.71;100.00
42105;BME280;61464;51.472;5.712;2023-01-19T13:13:44;100345.06;;;3.01;100.00
42105;BME280;61464;51.472;5.712;2023-01-19T13:21:40;100353.81;;;2.76;100.00
42105;BME280;61464;51.472;5.712;2023-01-19T13:24:21;100345.69;;;2.60;100.00
42105;BME280;61464;51.472;5.712;2023-01-19T13:31:56;100346.16;;;2.42;100.00
42105;BME280;61464;51.472;5.712;2023-01-19T13:34:38;100345.78;;;2.25;100.00
42105;BME280;61464;51.472;5.712;2023-01-19T13:37:05;100348.56;;;2.10;100.00
42105;BME280;61464;51.472;5.712;2023-01-19T13:39:40;100350.28;;;1.98;100.00
42105;BME280;61464;51.472;5.712;2023-01-19T13:42:45;100354.81;;;1.95;100.00
42105;BME280;61464;51.472;5.712;2023-01-19T13:47:52;100361.38;;;2.10;100.00
42105;BME280;61464;51.472;5.712;2023-01-19T13:50:39;100360.22;;;2.14;100.00
42105;BME280;61464;51.472;5.712;2023-01-19T13:53:20;100360.69;;;2.31;100.00
42105;BME280;61464;51.472;5.712;2023-01-19T13:56:19;100357.81;;;2.47;100.00
42105;BME280;61464;51.472;5.712;2023-01-19T13:59:05;100370.03;;;2.66;100.00
42105;BME280;61464;51.472;5.712;2023-01-19T14:01:36;100363.63;;;2.60;100.00
42105;BME280;61464;51.472;5.712;2023-01-19T14:04:03;100363.06;;;2.56;100.00
42105;BME280;61464;51.472;5.712;2023-01-19T14:06:43;100366.09;;;2.73;100.00
42105;BME280;61464;51.472;5.712;2023-01-19T14:09:17;100366.88;;;2.62;100.00
42105;BME280;61464;51.472;5.712;2023-01-19T14:11:47;100361.66;;;2.64;100.00
42105;BME280;61464;51.472;5.712;2023-01-19T14:14:28;100363.84;;;2.68;100.00
42105;BME280;61464;51.472;5.712;2023-01-19T14:16:54;100362.13;;;2.46;100.00
42105;BME280;61464;51.472;5.712;2023-01-19T14:19:20;100368.16;;;2.34;100.00
42105;BME280;61464;51.472;5.712;2023-01-19T14:22:03;100359.78;;;2.32;100.00